sensor_id;sensor_type;location;lat;lon;timestamp;P1;durP1;ratioP1;P2;durP2;ratioP2
10687;SDS011;5392;42.688;23.298;2022-12-18T00:01:17;4.40;;;4.10;;
10687;SDS011;5392;42.688;23.298;2022-12-18T00:03:48;4.05;;;3.85;;
10687;SDS011;5392;42.688;23.298;2022-12-18T00:06:17;4.53;;;4.13;;
10687;SDS011;5392;42.688;23.298;2022-12-18T00:08:44;5.03;;;4.63;;
10687;SDS011;5392;42.688;23.298;2022-12-18T00:11:12;4.80;;;4.50;;
10687;SDS011;5392;42.688;23.298;2022-12-18T00:13:41;3.78;;;3.53;;
10687;SDS011;5392;42.688;23.298;2022-12-18T00:16:10;4.60;;;4.20;;
10687;SDS011;5392;42.688;23.298;2022-12-18T00:18:38;4.40;;;4.13;;
10687;SDS011;5392;42.688;23.298;2022-12-18T00:21:07;6.65;;;5.15;;
10687;SDS011;5392;42.688;23.298;2022-12-18T00:23:36;5.07;;;4.68;;
10687;SDS011;5392;42.688;23.298;2022-12-18T00:26:05;5.25;;;4.85;;
10687;SDS011;5392;42.688;23.298;2022-12-18T00:28:33;5.75;;;5.18;;
10687;SDS011;5392;42.688;23.298;2022-12-18T00:31:01;5.55;;;5.05;;
10687;SDS011;5392;42.688;23.298;2022-12-18T00:33:36;5.78;;;5.22;;
10687;SDS011;5392;42.688;23.298;2022-12-18T00:36:04;5.32;;;4.85;;
10687;SDS011;5392;42.688;23.298;2022-12-18T00:38:32;5.70;;;5.20;;
10687;SDS011;5392;42.688;23.298;2022-12-18T00:41:00;5.93;;;5.07;;
10687;SDS011;5392;42.688;23.298;2022-12-18T00:43:27;4.80;;;4.40;;
10687;SDS011;5392;42.688;23.298;2022-12-18T00:45:54;4.50;;;4.10;;
10687;SDS011;5392;42.688;23.298;2022-12-18T00:48:21;4.85;;;4.50;;
10687;SDS011;5392;42.688;23.298;2022-12-18T00:50:49;5.20;;;4.80;;
10687;SDS011;5392;42.688;23.298;2022-12-18T00:53:16;5.20;;;4.78;;
10687;SDS011;5392;42.688;23.298;2022-12-18T00:55:45;4.53;;;4.22;;
10687;SDS011;5392;42.688;23.298;2022-12-18T00:58:13;5.13;;;4.63;;
10687;SDS011;5392;42.688;23.298;2022-12-18T01:00:40;5.45;;;5.05;;
10687;SDS011;5392;42.688;23.298;2022-12-18T01:03:07;5.13;;;4.75;;
10687;SDS011;5392;42.688;23.298;2022-12-18T01:05:38;5.72;;;5.10;;
10687;SDS011;5392;42.688;23.298;2022-12-18T01:08:06;4.82;;;4.53;;
10687;SDS011;5392;42.688;23.298;2022-12-18T01:10:32;4.45;;;4.15;;
10687;SDS011;5392;42.688;23.298;2022-12-18T01:12:59;5.50;;;5.00;;
10687;SDS011;5392;42.688;23.298;2022-12-18T01:15:26;4.65;;;4.25;;
10687;SDS011;5392;42.688;23.298;2022-12-18T01:17:53;5.82;;;5.20;;
10687;SDS011;5392;42.688;23.298;2022-12-18T01:20:20;7.18;;;6.50;;
10687;SDS011;5392;42.688;23.298;2022-12-18T01:22:46;5.70;;;5.22;;
10687;SDS011;5392;42.688;23.298;2022-12-18T01:25:13;6.28;;;5.53;;
10687;SDS011;5392;42.688;23.298;2022-12-18T01:27:40;6.35;;;5.75;;
10687;SDS011;5392;42.688;23.298;2022-12-18T01:30:06;8.57;;;6.50;;
10687;SDS011;5392;42.688;23.298;2022-12-18T01:32:33;7.90;;;6.90;;
10687;SDS011;5392;42.688;23.298;2022-12-18T01:35:01;7.28;;;6.57;;
10687;SDS011;5392;42.688;23.298;2022-12-18T01:37:28;6.78;;;6.28;;
10687;SDS011;5392;42.688;23.298;2022-12-18T01:39:54;7.07;;;6.38;;
10687;SDS011;5392;42.688;23.298;2022-12-18T01:42:21;8.52;;;6.43;;
10687;SDS011;5392;42.688;23.298;2022-12-18T01:52:42;8.65;;;6.70;;
10687;SDS011;5392;42.688;23.298;2022-12-18T01:55:13;6.53;;;5.93;;
10687;SDS011;5392;42.688;23.298;2022-12-18T01:57:42;5.95;;;4.30;;
10687;SDS011;5392;42.688;23.298;2022-12-18T02:00:11;5.90;;;5.40;;
10687;SDS011;5392;42.688;23.298;2022-12-18T02:02:41;6.07;;;5.47;;
10687;SDS011;5392;42.688;23.298;2022-12-18T02:05:10;6.45;;;5.75;;
10687;SDS011;5392;42.688;23.298;2022-12-18T02:16:21;5.97;;;5.10;;
10687;SDS011;5392;42.688;23.298;2022-12-18T02:18:56;7.07;;;5.95;;
10687;SDS011;5392;42.688;23.298;2022-12-18T02:26:41;7.15;;;6.15;;
10687;SDS011;5392;42.688;23.298;2022-12-18T02:29:24;6.78;;;6.00;;
10687;SDS011;5392;42.688;23.298;2022-12-18T02:32:04;6.07;;;5.47;;
10687;SDS011;5392;42.688;23.298;2022-12-18T02:34:37;5.78;;;5.18;;
10687;SDS011;5392;42.688;23.298;2022-12-18T02:37:09;5.45;;;4.88;;
10687;SDS011;5392;42.688;23.298;2022-12-18T02:39:39;5.10;;;4.70;;
10687;SDS011;5392;42.688;23.298;2022-12-18T02:42:08;6.03;;;4.28;;
10687;SDS011;5392;42.688;23.298;2022-12-18T02:44:41;4.20;;;3.67;;
10687;SDS011;5392;42.688;23.298;2022-12-18T02:47:11;5.78;;;4.53;;
10687;SDS011;5392;42.688;23.298;2022-12-18T02:57:15;5.85;;;5.18;;
10687;SDS011;5392;42.688;23.298;2022-12-18T03:05:40;5.18;;;4.60;;
10687;SDS011;5392;42.688;23.298;2022-12-18T03:08:18;6.15;;;5.55;;
10687;SDS011;5392;42.688;23.298;2022-12-18T03:10:49;5.47;;;5.00;;
10687;SDS011;5392;42.688;23.298;2022-12-18T03:13:31;5.82;;;4.57;;
10687;SDS011;5392;42.688;23.298;2022-12-18T03:16:07;5.68;;;5.15;;
10687;SDS011;5392;42.688;23.298;2022-12-18T03:21:15;7.80;;;5.82;;
10687;SDS011;5392;42.688;23.298;2022-12-18T03:23:48;6.75;;;6.13;;
10687;SDS011;5392;42.688;23.298;2022-12-18T03:26:18;6.32;;;5.72;;
10687;SDS011;5392;42.688;23.298;2022-12-18T03:28:53;6.03;;;5.43;;
10687;SDS011;5392;42.688;23.298;2022-12-18T03:31:24;6.40;;;5.35;;
10687;SDS011;5392;42.688;23.298;2022-12-18T03:33:55;5.28;;;4.78;;
10687;SDS011;5392;42.688;23.298;2022-12-18T03:36:25;5.72;;;5.22;;
10687;SDS011;5392;42.688;23.298;2022-12-18T03:38:52;4.97;;;4.50;;
10687;SDS011;5392;42.688;23.298;2022-12-18T03:41:23;7.70;;;5.72;;
10687;SDS011;5392;42.688;23.298;2022-12-18T03:44:11;5.47;;;4.75;;
10687;SDS011;5392;42.688;23.298;2022-12-18T03:46:56;5.90;;;5.07;;
10687;SDS011;5392;42.688;23.298;2022-12-18T03:52:14;6.20;;;5.60;;
10687;SDS011;5392;42.688;23.298;2022-12-18T03:54:47;5.57;;;5.07;;
10687;SDS011;5392;42.688;23.298;2022-12-18T03:57:16;5.32;;;4.90;;
10687;SDS011;5392;42.688;23.298;2022-12-18T03:59:45;5.25;;;4.78;;
10687;SDS011;5392;42.688;23.298;2022-12-18T04:02:16;7.13;;;5.03;;
10687;SDS011;5392;42.688;23.298;2022-12-18T04:04:44;5.85;;;5.30;;
10687;SDS011;5392;42.688;23.298;2022-12-18T04:07:13;7.03;;;4.97;;
10687;SDS011;5392;42.688;23.298;2022-12-18T04:09:40;7.88;;;6.20;;
10687;SDS011;5392;42.688;23.298;2022-12-18T04:12:09;8.15;;;6.43;;
10687;SDS011;5392;42.688;23.298;2022-12-18T04:14:36;8.30;;;5.88;;
10687;SDS011;5392;42.688;23.298;2022-12-18T04:17:03;8.80;;;7.00;;
10687;SDS011;5392;42.688;23.298;2022-12-18T04:19:29;7.90;;;6.30;;
10687;SDS011;5392;42.688;23.298;2022-12-18T04:21:56;8.38;;;6.65;;
10687;SDS011;5392;42.688;23.298;2022-12-18T04:24:23;7.97;;;7.20;;
10687;SDS011;5392;42.688;23.298;2022-12-18T04:26:49;8.98;;;6.93;;
10687;SDS011;5392;42.688;23.298;2022-12-18T04:29:16;9.70;;;7.30;;
10687;SDS011;5392;42.688;23.298;2022-12-18T04:31:42;7.88;;;6.70;;
10687;SDS011;5392;42.688;23.298;2022-12-18T04:34:09;7.97;;;7.18;;
10687;SDS011;5392;42.688;23.298;2022-12-18T04:36:36;8.52;;;7.30;;
10687;SDS011;5392;42.688;23.298;2022-12-18T04:39:03;7.97;;;6.97;;
10687;SDS011;5392;42.688;23.298;2022-12-18T04:41:29;9.77;;;7.32;;
10687;SDS011;5392;42.688;23.298;2022-12-18T04:44:14;9.18;;;7.03;;
10687;SDS011;5392;42.688;23.298;2022-12-18T04:46:41;10.40;;;8.00;;
10687;SDS011;5392;42.688;23.298;2022-12-18T04:49:08;8.65;;;7.78;;
10687;SDS011;5392;42.688;23.298;2022-12-18T04:51:37;13.55;;;8.80;;
10687;SDS011;5392;42.688;23.298;2022-12-18T04:54:04;12.73;;;7.90;;
10687;SDS011;5392;42.688;23.298;2022-12-18T04:56:31;9.10;;;7.20;;
10687;SDS011;5392;42.688;23.298;2022-12-18T04:58:58;10.35;;;7.43;;
10687;SDS011;5392;42.688;23.298;2022-12-18T05:01:24;13.88;;;8.55;;
10687;SDS011;5392;42.688;23.298;2022-12-18T05:03:59;12.25;;;8.63;;
10687;SDS011;5392;42.688;23.298;2022-12-18T05:06:26;12.23;;;8.55;;
10687;SDS011;5392;42.688;23.298;2022-12-18T05:08:53;12.57;;;9.13;;
10687;SDS011;5392;42.688;23.298;2022-12-18T05:11:20;12.07;;;8.20;;
10687;SDS011;5392;42.688;23.298;2022-12-18T05:13:47;10.85;;;8.55;;
10687;SDS011;5392;42.688;23.298;2022-12-18T05:16:13;11.43;;;9.50;;
10687;SDS011;5392;42.688;23.298;2022-12-18T05:18:41;14.60;;;10.30;;
10687;SDS011;5392;42.688;23.298;2022-12-18T05:21:07;10.35;;;8.07;;
10687;SDS011;5392;42.688;23.298;2022-12-18T05:23:34;12.60;;;9.27;;
10687;SDS011;5392;42.688;23.298;2022-12-18T05:26:02;11.32;;;8.25;;
10687;SDS011;5392;42.688;23.298;2022-12-18T05:28:32;12.13;;;9.07;;
10687;SDS011;5392;42.688;23.298;2022-12-18T05:31:00;12.05;;;9.10;;
10687;SDS011;5392;42.688;23.298;2022-12-18T05:33:29;13.75;;;9.48;;
10687;SDS011;5392;42.688;23.298;2022-12-18T05:35:58;12.88;;;9.60;;
10687;SDS011;5392;42.688;23.298;2022-12-18T05:38:27;12.82;;;10.35;;
10687;SDS011;5392;42.688;23.298;2022-12-18T05:40:55;12.10;;;9.25;;
10687;SDS011;5392;42.688;23.298;2022-12-18T05:43:23;14.13;;;9.75;;
10687;SDS011;5392;42.688;23.298;2022-12-18T05:45:50;10.45;;;8.85;;
10687;SDS011;5392;42.688;23.298;2022-12-18T05:48:18;15.38;;;11.05;;
10687;SDS011;5392;42.688;23.298;2022-12-18T05:50:47;14.73;;;10.63;;
10687;SDS011;5392;42.688;23.298;2022-12-18T05:53:16;14.95;;;9.57;;
10687;SDS011;5392;42.688;23.298;2022-12-18T05:55:45;17.05;;;10.75;;
10687;SDS011;5392;42.688;23.298;2022-12-18T05:58:13;15.93;;;10.70;;
10687;SDS011;5392;42.688;23.298;2022-12-18T06:00:41;14.68;;;10.55;;
10687;SDS011;5392;42.688;23.298;2022-12-18T06:03:10;14.75;;;11.15;;
10687;SDS011;5392;42.688;23.298;2022-12-18T06:05:39;17.67;;;11.27;;
10687;SDS011;5392;42.688;23.298;2022-12-18T06:08:07;14.75;;;10.80;;
10687;SDS011;5392;42.688;23.298;2022-12-18T06:10:34;14.27;;;10.63;;
10687;SDS011;5392;42.688;23.298;2022-12-18T06:13:01;14.13;;;9.60;;
10687;SDS011;5392;42.688;23.298;2022-12-18T06:15:28;17.50;;;10.38;;
10687;SDS011;5392;42.688;23.298;2022-12-18T06:17:55;14.43;;;10.98;;
10687;SDS011;5392;42.688;23.298;2022-12-18T06:20:22;14.43;;;10.05;;
10687;SDS011;5392;42.688;23.298;2022-12-18T06:22:48;16.10;;;10.90;;
10687;SDS011;5392;42.688;23.298;2022-12-18T06:25:15;14.20;;;10.48;;
10687;SDS011;5392;42.688;23.298;2022-12-18T06:27:42;13.85;;;9.98;;
10687;SDS011;5392;42.688;23.298;2022-12-18T06:30:09;14.75;;;10.68;;
10687;SDS011;5392;42.688;23.298;2022-12-18T06:32:36;16.40;;;10.73;;
10687;SDS011;5392;42.688;23.298;2022-12-18T06:35:03;15.30;;;11.35;;
10687;SDS011;5392;42.688;23.298;2022-12-18T06:37:31;15.50;;;11.48;;
10687;SDS011;5392;42.688;23.298;2022-12-18T06:39:57;16.85;;;11.18;;
10687;SDS011;5392;42.688;23.298;2022-12-18T06:42:24;13.73;;;10.52;;
10687;SDS011;5392;42.688;23.298;2022-12-18T06:44:51;16.85;;;11.50;;
10687;SDS011;5392;42.688;23.298;2022-12-18T06:47:18;16.95;;;11.38;;
10687;SDS011;5392;42.688;23.298;2022-12-18T06:49:45;13.15;;;10.50;;
10687;SDS011;5392;42.688;23.298;2022-12-18T06:52:12;15.82;;;10.63;;
10687;SDS011;5392;42.688;23.298;2022-12-18T06:54:38;13.95;;;10.32;;
10687;SDS011;5392;42.688;23.298;2022-12-18T06:57:05;14.05;;;9.75;;
10687;SDS011;5392;42.688;23.298;2022-12-18T06:59:32;16.27;;;11.07;;
10687;SDS011;5392;42.688;23.298;2022-12-18T07:01:59;14.75;;;9.52;;
10687;SDS011;5392;42.688;23.298;2022-12-18T07:04:29;15.65;;;9.95;;
10687;SDS011;5392;42.688;23.298;2022-12-18T07:06:56;15.90;;;10.38;;
10687;SDS011;5392;42.688;23.298;2022-12-18T07:09:24;17.35;;;11.45;;
10687;SDS011;5392;42.688;23.298;2022-12-18T07:11:51;15.65;;;10.02;;
10687;SDS011;5392;42.688;23.298;2022-12-18T07:14:18;14.35;;;11.05;;
10687;SDS011;5392;42.688;23.298;2022-12-18T07:16:46;15.52;;;11.55;;
10687;SDS011;5392;42.688;23.298;2022-12-18T07:19:13;16.60;;;11.93;;
10687;SDS011;5392;42.688;23.298;2022-12-18T07:21:40;18.85;;;11.50;;
10687;SDS011;5392;42.688;23.298;2022-12-18T07:24:07;16.90;;;10.18;;
10687;SDS011;5392;42.688;23.298;2022-12-18T07:26:34;15.15;;;10.68;;
10687;SDS011;5392;42.688;23.298;2022-12-18T07:29:01;15.95;;;11.50;;
10687;SDS011;5392;42.688;23.298;2022-12-18T07:31:27;18.23;;;11.75;;
10687;SDS011;5392;42.688;23.298;2022-12-18T07:33:54;20.38;;;12.05;;
10687;SDS011;5392;42.688;23.298;2022-12-18T07:36:21;21.10;;;12.82;;
10687;SDS011;5392;42.688;23.298;2022-12-18T07:38:49;20.20;;;13.10;;
10687;SDS011;5392;42.688;23.298;2022-12-18T07:41:18;19.50;;;12.50;;
10687;SDS011;5392;42.688;23.298;2022-12-18T07:43:46;21.58;;;13.68;;
10687;SDS011;5392;42.688;23.298;2022-12-18T07:46:13;18.92;;;12.82;;
10687;SDS011;5392;42.688;23.298;2022-12-18T07:48:41;23.23;;;14.23;;
10687;SDS011;5392;42.688;23.298;2022-12-18T07:51:10;22.52;;;15.02;;
10687;SDS011;5392;42.688;23.298;2022-12-18T07:53:37;20.58;;;13.65;;
10687;SDS011;5392;42.688;23.298;2022-12-18T07:56:06;20.08;;;13.70;;
10687;SDS011;5392;42.688;23.298;2022-12-18T07:58:53;20.67;;;13.57;;
10687;SDS011;5392;42.688;23.298;2022-12-18T08:01:19;23.02;;;13.95;;
10687;SDS011;5392;42.688;23.298;2022-12-18T08:03:46;24.92;;;15.00;;
10687;SDS011;5392;42.688;23.298;2022-12-18T08:06:15;22.73;;;14.88;;
10687;SDS011;5392;42.688;23.298;2022-12-18T08:08:41;23.02;;;15.18;;
10687;SDS011;5392;42.688;23.298;2022-12-18T08:11:08;22.88;;;14.13;;
10687;SDS011;5392;42.688;23.298;2022-12-18T08:13:35;26.15;;;17.75;;
10687;SDS011;5392;42.688;23.298;2022-12-18T08:16:03;28.48;;;18.48;;
10687;SDS011;5392;42.688;23.298;2022-12-18T08:18:35;24.48;;;15.80;;
10687;SDS011;5392;42.688;23.298;2022-12-18T08:23:37;24.33;;;15.45;;
10687;SDS011;5392;42.688;23.298;2022-12-18T08:26:09;27.10;;;17.77;;
10687;SDS011;5392;42.688;23.298;2022-12-18T08:28:37;23.65;;;16.00;;
10687;SDS011;5392;42.688;23.298;2022-12-18T08:31:04;30.55;;;17.92;;
10687;SDS011;5392;42.688;23.298;2022-12-18T08:33:31;22.63;;;15.13;;
10687;SDS011;5392;42.688;23.298;2022-12-18T08:35:59;25.80;;;17.23;;
10687;SDS011;5392;42.688;23.298;2022-12-18T08:38:26;35.17;;;18.30;;
10687;SDS011;5392;42.688;23.298;2022-12-18T08:41:00;22.17;;;14.23;;
10687;SDS011;5392;42.688;23.298;2022-12-18T08:43:31;22.45;;;14.48;;
10687;SDS011;5392;42.688;23.298;2022-12-18T08:46:32;41.00;;;25.45;;
10687;SDS011;5392;42.688;23.298;2022-12-18T08:49:01;24.83;;;16.02;;
10687;SDS011;5392;42.688;23.298;2022-12-18T08:51:29;30.52;;;16.55;;
10687;SDS011;5392;42.688;23.298;2022-12-18T08:53:56;20.80;;;14.05;;
10687;SDS011;5392;42.688;23.298;2022-12-18T08:56:22;21.88;;;13.18;;
10687;SDS011;5392;42.688;23.298;2022-12-18T08:58:52;18.83;;;13.75;;
10687;SDS011;5392;42.688;23.298;2022-12-18T09:01:19;21.77;;;14.30;;
10687;SDS011;5392;42.688;23.298;2022-12-18T09:03:50;19.85;;;12.85;;
10687;SDS011;5392;42.688;23.298;2022-12-18T09:06:18;20.73;;;12.73;;
10687;SDS011;5392;42.688;23.298;2022-12-18T09:08:46;22.10;;;14.18;;
10687;SDS011;5392;42.688;23.298;2022-12-18T09:11:20;20.58;;;13.35;;
10687;SDS011;5392;42.688;23.298;2022-12-18T09:13:49;24.90;;;12.60;;
10687;SDS011;5392;42.688;23.298;2022-12-18T09:16:16;22.55;;;14.13;;
10687;SDS011;5392;42.688;23.298;2022-12-18T09:18:43;19.23;;;12.60;;
10687;SDS011;5392;42.688;23.298;2022-12-18T09:21:13;20.02;;;12.75;;
10687;SDS011;5392;42.688;23.298;2022-12-18T09:23:42;20.33;;;13.15;;
10687;SDS011;5392;42.688;23.298;2022-12-18T09:26:09;23.08;;;13.52;;
10687;SDS011;5392;42.688;23.298;2022-12-18T09:28:36;16.55;;;11.90;;
10687;SDS011;5392;42.688;23.298;2022-12-18T09:31:04;14.32;;;9.90;;
10687;SDS011;5392;42.688;23.298;2022-12-18T09:33:37;22.00;;;13.00;;
10687;SDS011;5392;42.688;23.298;2022-12-18T09:36:04;15.93;;;11.60;;
10687;SDS011;5392;42.688;23.298;2022-12-18T09:38:33;20.23;;;12.13;;
10687;SDS011;5392;42.688;23.298;2022-12-18T09:41:01;18.70;;;11.30;;
10687;SDS011;5392;42.688;23.298;2022-12-18T09:43:43;17.83;;;11.15;;
10687;SDS011;5392;42.688;23.298;2022-12-18T09:46:19;20.45;;;12.18;;
10687;SDS011;5392;42.688;23.298;2022-12-18T09:49:02;16.30;;;10.35;;
10687;SDS011;5392;42.688;23.298;2022-12-18T09:51:35;16.88;;;10.93;;
10687;SDS011;5392;42.688;23.298;2022-12-18T09:54:11;17.08;;;11.05;;
10687;SDS011;5392;42.688;23.298;2022-12-18T09:56:42;14.48;;;9.57;;
10687;SDS011;5392;42.688;23.298;2022-12-18T09:59:16;13.85;;;10.25;;
10687;SDS011;5392;42.688;23.298;2022-12-18T10:01:47;16.52;;;10.98;;
10687;SDS011;5392;42.688;23.298;2022-12-18T10:04:14;17.60;;;13.18;;
10687;SDS011;5392;42.688;23.298;2022-12-18T10:17:45;17.90;;;13.15;;
10687;SDS011;5392;42.688;23.298;2022-12-18T10:23:33;17.05;;;10.90;;
10687;SDS011;5392;42.688;23.298;2022-12-18T10:26:13;19.73;;;10.30;;
10687;SDS011;5392;42.688;23.298;2022-12-18T10:28:40;18.02;;;11.90;;
10687;SDS011;5392;42.688;23.298;2022-12-18T10:31:19;18.73;;;12.93;;
10687;SDS011;5392;42.688;23.298;2022-12-18T10:33:50;19.77;;;11.73;;
10687;SDS011;5392;42.688;23.298;2022-12-18T10:36:17;14.40;;;11.00;;
10687;SDS011;5392;42.688;23.298;2022-12-18T10:38:43;17.75;;;11.50;;
10687;SDS011;5392;42.688;23.298;2022-12-18T10:44:10;17.77;;;10.65;;
10687;SDS011;5392;42.688;23.298;2022-12-18T10:46:41;15.82;;;11.18;;
10687;SDS011;5392;42.688;23.298;2022-12-18T10:49:18;17.10;;;11.45;;
10687;SDS011;5392;42.688;23.298;2022-12-18T10:51:47;18.23;;;12.70;;
10687;SDS011;5392;42.688;23.298;2022-12-18T10:54:19;18.10;;;12.70;;
10687;SDS011;5392;42.688;23.298;2022-12-18T10:56:48;19.15;;;13.57;;
10687;SDS011;5392;42.688;23.298;2022-12-18T10:59:16;17.88;;;12.55;;
10687;SDS011;5392;42.688;23.298;2022-12-18T11:01:48;18.27;;;11.75;;
10687;SDS011;5392;42.688;23.298;2022-12-18T11:04:22;17.40;;;12.40;;
10687;SDS011;5392;42.688;23.298;2022-12-18T11:07:03;15.00;;;10.15;;
10687;SDS011;5392;42.688;23.298;2022-12-18T11:09:35;16.45;;;10.55;;
10687;SDS011;5392;42.688;23.298;2022-12-18T11:12:04;12.70;;;8.80;;
10687;SDS011;5392;42.688;23.298;2022-12-18T11:14:52;18.02;;;10.85;;
10687;SDS011;5392;42.688;23.298;2022-12-18T11:17:20;17.73;;;11.05;;
10687;SDS011;5392;42.688;23.298;2022-12-18T11:19:59;18.20;;;10.88;;
10687;SDS011;5392;42.688;23.298;2022-12-18T11:22:28;17.92;;;11.60;;
10687;SDS011;5392;42.688;23.298;2022-12-18T11:25:00;19.40;;;11.07;;
10687;SDS011;5392;42.688;23.298;2022-12-18T11:27:49;19.25;;;11.55;;
10687;SDS011;5392;42.688;23.298;2022-12-18T11:32:48;18.20;;;11.50;;
10687;SDS011;5392;42.688;23.298;2022-12-18T11:35:34;16.83;;;11.50;;
10687;SDS011;5392;42.688;23.298;2022-12-18T11:38:04;18.33;;;11.38;;
10687;SDS011;5392;42.688;23.298;2022-12-18T11:41:15;18.92;;;13.27;;
10687;SDS011;5392;42.688;23.298;2022-12-18T11:44:16;18.95;;;13.23;;
10687;SDS011;5392;42.688;23.298;2022-12-18T11:47:01;19.58;;;13.25;;
10687;SDS011;5392;42.688;23.298;2022-12-18T11:49:35;18.17;;;13.77;;
10687;SDS011;5392;42.688;23.298;2022-12-18T11:54:53;18.05;;;11.60;;
10687;SDS011;5392;42.688;23.298;2022-12-18T12:08:25;19.40;;;11.77;;
10687;SDS011;5392;42.688;23.298;2022-12-18T12:16:22;20.55;;;12.68;;
10687;SDS011;5392;42.688;23.298;2022-12-18T12:19:05;26.10;;;13.75;;
10687;SDS011;5392;42.688;23.298;2022-12-18T12:21:47;22.30;;;12.07;;
10687;SDS011;5392;42.688;23.298;2022-12-18T12:24:43;19.88;;;12.55;;
10687;SDS011;5392;42.688;23.298;2022-12-18T12:30:12;18.65;;;12.43;;
10687;SDS011;5392;42.688;23.298;2022-12-18T12:35:47;18.65;;;11.45;;
10687;SDS011;5392;42.688;23.298;2022-12-18T12:38:23;21.17;;;12.70;;
10687;SDS011;5392;42.688;23.298;2022-12-18T12:41:04;20.55;;;13.70;;
10687;SDS011;5392;42.688;23.298;2022-12-18T12:43:54;21.83;;;14.48;;
10687;SDS011;5392;42.688;23.298;2022-12-18T12:46:24;19.17;;;13.75;;
10687;SDS011;5392;42.688;23.298;2022-12-18T12:48:53;21.40;;;13.10;;
10687;SDS011;5392;42.688;23.298;2022-12-18T12:53:53;19.10;;;11.95;;
10687;SDS011;5392;42.688;23.298;2022-12-18T12:56:22;18.23;;;12.27;;
10687;SDS011;5392;42.688;23.298;2022-12-18T12:59:19;16.48;;;11.45;;
10687;SDS011;5392;42.688;23.298;2022-12-18T13:04:39;15.57;;;11.35;;
10687;SDS011;5392;42.688;23.298;2022-12-18T13:07:24;23.45;;;13.20;;
10687;SDS011;5392;42.688;23.298;2022-12-18T13:10:22;21.85;;;12.02;;
10687;SDS011;5392;42.688;23.298;2022-12-18T13:13:08;15.23;;;10.65;;
10687;SDS011;5392;42.688;23.298;2022-12-18T13:15:47;18.90;;;11.57;;
10687;SDS011;5392;42.688;23.298;2022-12-18T13:23:29;19.17;;;10.50;;
10687;SDS011;5392;42.688;23.298;2022-12-18T13:31:00;18.48;;;11.00;;
10687;SDS011;5392;42.688;23.298;2022-12-18T13:38:39;16.58;;;11.00;;
10687;SDS011;5392;42.688;23.298;2022-12-18T13:46:30;23.50;;;13.55;;
10687;SDS011;5392;42.688;23.298;2022-12-18T13:51:43;21.77;;;13.80;;
10687;SDS011;5392;42.688;23.298;2022-12-18T13:56:48;22.13;;;13.02;;
10687;SDS011;5392;42.688;23.298;2022-12-18T13:59:17;16.70;;;11.57;;
10687;SDS011;5392;42.688;23.298;2022-12-18T14:04:24;21.17;;;13.60;;
10687;SDS011;5392;42.688;23.298;2022-12-18T14:09:57;17.90;;;10.13;;
10687;SDS011;5392;42.688;23.298;2022-12-18T14:12:47;45.00;;;33.05;;
10687;SDS011;5392;42.688;23.298;2022-12-18T14:15:49;32.70;;;21.48;;
10687;SDS011;5392;42.688;23.298;2022-12-18T14:18:23;30.60;;;21.05;;
10687;SDS011;5392;42.688;23.298;2022-12-18T14:20:54;20.17;;;12.18;;
10687;SDS011;5392;42.688;23.298;2022-12-18T14:23:28;16.40;;;10.60;;
10687;SDS011;5392;42.688;23.298;2022-12-18T14:26:17;16.80;;;10.95;;
10687;SDS011;5392;42.688;23.298;2022-12-18T14:28:50;20.05;;;11.55;;
10687;SDS011;5392;42.688;23.298;2022-12-18T14:31:24;20.95;;;12.07;;
10687;SDS011;5392;42.688;23.298;2022-12-18T14:33:52;17.50;;;11.48;;
10687;SDS011;5392;42.688;23.298;2022-12-18T14:36:23;18.55;;;11.60;;
10687;SDS011;5392;42.688;23.298;2022-12-18T14:38:53;15.52;;;10.50;;
10687;SDS011;5392;42.688;23.298;2022-12-18T14:41:21;15.95;;;10.38;;
10687;SDS011;5392;42.688;23.298;2022-12-18T14:43:50;15.85;;;10.77;;
10687;SDS011;5392;42.688;23.298;2022-12-18T14:51:49;17.52;;;9.63;;
10687;SDS011;5392;42.688;23.298;2022-12-18T14:54:19;13.75;;;8.52;;
10687;SDS011;5392;42.688;23.298;2022-12-18T14:56:59;13.45;;;8.85;;
10687;SDS011;5392;42.688;23.298;2022-12-18T14:59:29;18.45;;;9.70;;
10687;SDS011;5392;42.688;23.298;2022-12-18T15:02:08;17.48;;;10.48;;
10687;SDS011;5392;42.688;23.298;2022-12-18T15:04:44;23.52;;;12.68;;
10687;SDS011;5392;42.688;23.298;2022-12-18T15:07:22;23.55;;;15.10;;
10687;SDS011;5392;42.688;23.298;2022-12-18T15:12:44;20.65;;;12.68;;
10687;SDS011;5392;42.688;23.298;2022-12-18T15:18:03;16.20;;;9.93;;
10687;SDS011;5392;42.688;23.298;2022-12-18T15:20:42;17.02;;;11.32;;
10687;SDS011;5392;42.688;23.298;2022-12-18T15:25:56;16.48;;;9.55;;
10687;SDS011;5392;42.688;23.298;2022-12-18T15:28:26;13.77;;;8.68;;
10687;SDS011;5392;42.688;23.298;2022-12-18T15:31:05;16.52;;;10.35;;
10687;SDS011;5392;42.688;23.298;2022-12-18T15:33:34;16.45;;;10.15;;
10687;SDS011;5392;42.688;23.298;2022-12-18T15:36:04;18.13;;;11.77;;
10687;SDS011;5392;42.688;23.298;2022-12-18T15:38:36;17.98;;;13.23;;
10687;SDS011;5392;42.688;23.298;2022-12-18T15:41:03;22.27;;;14.38;;
10687;SDS011;5392;42.688;23.298;2022-12-18T15:43:37;21.33;;;13.63;;
10687;SDS011;5392;42.688;23.298;2022-12-18T15:46:06;21.52;;;12.68;;
10687;SDS011;5392;42.688;23.298;2022-12-18T15:48:41;20.80;;;11.45;;
10687;SDS011;5392;42.688;23.298;2022-12-18T15:51:15;17.73;;;10.75;;
10687;SDS011;5392;42.688;23.298;2022-12-18T15:53:42;15.57;;;11.05;;
10687;SDS011;5392;42.688;23.298;2022-12-18T15:56:11;13.23;;;9.55;;
10687;SDS011;5392;42.688;23.298;2022-12-18T15:58:57;22.15;;;11.48;;
10687;SDS011;5392;42.688;23.298;2022-12-18T16:01:25;19.27;;;10.90;;
10687;SDS011;5392;42.688;23.298;2022-12-18T16:03:54;18.45;;;10.40;;
10687;SDS011;5392;42.688;23.298;2022-12-18T16:06:21;17.33;;;10.93;;
10687;SDS011;5392;42.688;23.298;2022-12-18T16:08:48;20.17;;;12.20;;
10687;SDS011;5392;42.688;23.298;2022-12-18T16:11:22;17.77;;;11.27;;
10687;SDS011;5392;42.688;23.298;2022-12-18T16:14:11;20.35;;;12.05;;
10687;SDS011;5392;42.688;23.298;2022-12-18T16:16:44;19.17;;;14.52;;
10687;SDS011;5392;42.688;23.298;2022-12-18T16:19:15;18.88;;;13.02;;
10687;SDS011;5392;42.688;23.298;2022-12-18T16:21:42;20.88;;;13.00;;
10687;SDS011;5392;42.688;23.298;2022-12-18T16:24:13;21.52;;;12.68;;
10687;SDS011;5392;42.688;23.298;2022-12-18T16:27:02;21.90;;;13.45;;
10687;SDS011;5392;42.688;23.298;2022-12-18T16:29:29;23.42;;;13.65;;
10687;SDS011;5392;42.688;23.298;2022-12-18T16:31:56;20.70;;;12.90;;
10687;SDS011;5392;42.688;23.298;2022-12-18T16:34:31;18.85;;;12.50;;
10687;SDS011;5392;42.688;23.298;2022-12-18T16:37:02;22.63;;;13.38;;
10687;SDS011;5392;42.688;23.298;2022-12-18T16:39:32;24.38;;;14.13;;
10687;SDS011;5392;42.688;23.298;2022-12-18T16:42:03;24.75;;;14.63;;
10687;SDS011;5392;42.688;23.298;2022-12-18T16:44:35;21.23;;;12.27;;
10687;SDS011;5392;42.688;23.298;2022-12-18T16:47:02;20.20;;;12.60;;
10687;SDS011;5392;42.688;23.298;2022-12-18T16:49:30;19.70;;;12.55;;
10687;SDS011;5392;42.688;23.298;2022-12-18T16:51:56;20.80;;;11.07;;
10687;SDS011;5392;42.688;23.298;2022-12-18T16:54:23;21.75;;;12.77;;
10687;SDS011;5392;42.688;23.298;2022-12-18T16:56:50;22.95;;;13.18;;
10687;SDS011;5392;42.688;23.298;2022-12-18T16:59:17;20.92;;;12.75;;
10687;SDS011;5392;42.688;23.298;2022-12-18T17:01:45;20.58;;;12.77;;
10687;SDS011;5392;42.688;23.298;2022-12-18T17:04:12;19.90;;;12.18;;
10687;SDS011;5392;42.688;23.298;2022-12-18T17:06:39;19.45;;;12.48;;
10687;SDS011;5392;42.688;23.298;2022-12-18T17:09:09;20.55;;;12.38;;
10687;SDS011;5392;42.688;23.298;2022-12-18T17:11:39;19.25;;;11.88;;